sensor_id;sensor_type;location;lat;lon;timestamp;P1;durP1;ratioP1;P2;durP2;ratioP2
32427;SDS011;18882;50.952;4.366;2022-08-16T00:01:53;15.93;;;10.60;;
32427;SDS011;18882;50.952;4.366;2022-08-16T00:04:19;15.23;;;10.13;;
32427;SDS011;18882;50.952;4.366;2022-08-16T00:06:45;17.70;;;11.32;;
32427;SDS011;18882;50.952;4.366;2022-08-16T00:09:11;20.80;;;10.75;;
32427;SDS011;18882;50.952;4.366;2022-08-16T00:11:38;15.50;;;11.07;;
32427;SDS011;18882;50.952;4.366;2022-08-16T00:14:05;21.33;;;11.45;;
32427;SDS011;18882;50.952;4.366;2022-08-16T00:16:34;12.90;;;10.65;;
32427;SDS011;18882;50.952;4.366;2022-08-16T00:18:59;15.93;;;11.05;;
32427;SDS011;18882;50.952;4.366;2022-08-16T00:21:25;16.83;;;10.57;;
32427;SDS011;18882;50.952;4.366;2022-08-16T00:23:51;15.23;;;10.68;;
32427;SDS011;18882;50.952;4.366;2022-08-16T00:26:17;14.65;;;10.38;;
32427;SDS011;18882;50.952;4.366;2022-08-16T00:28:42;18.17;;;10.65;;
32427;SDS011;18882;50.952;4.366;2022-08-16T00:31:08;14.05;;;10.88;;
32427;SDS011;18882;50.952;4.366;2022-08-16T00:33:34;17.27;;;10.30;;
32427;SDS011;18882;50.952;4.366;2022-08-16T00:35:59;13.55;;;9.88;;
32427;SDS011;18882;50.952;4.366;2022-08-16T00:38:25;15.40;;;10.68;;
32427;SDS011;18882;50.952;4.366;2022-08-16T00:40:51;19.55;;;11.55;;
32427;SDS011;18882;50.952;4.366;2022-08-16T00:43:21;12.40;;;10.80;;
32427;SDS011;18882;50.952;4.366;2022-08-16T00:45:53;15.60;;;10.98;;
32427;SDS011;18882;50.952;4.366;2022-08-16T00:48:30;16.63;;;10.82;;
32427;SDS011;18882;50.952;4.366;2022-08-16T00:50:56;18.08;;;11.00;;
32427;SDS011;18882;50.952;4.366;2022-08-16T00:53:22;15.40;;;10.82;;
32427;SDS011;18882;50.952;4.366;2022-08-16T00:55:49;16.20;;;11.25;;
32427;SDS011;18882;50.952;4.366;2022-08-16T00:58:17;13.45;;;10.57;;
32427;SDS011;18882;50.952;4.366;2022-08-16T01:00:50;17.17;;;10.38;;
32427;SDS011;18882;50.952;4.366;2022-08-16T01:03:17;16.48;;;11.15;;
32427;SDS011;18882;50.952;4.366;2022-08-16T01:05:45;17.58;;;10.90;;
32427;SDS011;18882;50.952;4.366;2022-08-16T01:08:11;17.23;;;11.27;;
32427;SDS011;18882;50.952;4.366;2022-08-16T01:10:39;14.48;;;10.52;;
32427;SDS011;18882;50.952;4.366;2022-08-16T01:13:07;15.43;;;10.25;;
32427;SDS011;18882;50.952;4.366;2022-08-16T01:15:34;17.70;;;11.05;;
32427;SDS011;18882;50.952;4.366;2022-08-16T01:18:02;15.07;;;11.07;;
32427;SDS011;18882;50.952;4.366;2022-08-16T01:20:30;16.15;;;10.80;;
32427;SDS011;18882;50.952;4.366;2022-08-16T01:23:09;19.25;;;11.00;;
32427;SDS011;18882;50.952;4.366;2022-08-16T01:25:46;19.10;;;11.52;;
32427;SDS011;18882;50.952;4.366;2022-08-16T01:28:16;19.58;;;12.00;;
32427;SDS011;18882;50.952;4.366;2022-08-16T01:30:45;14.80;;;10.43;;
32427;SDS011;18882;50.952;4.366;2022-08-16T01:33:16;14.77;;;11.05;;
32427;SDS011;18882;50.952;4.366;2022-08-16T01:35:55;16.50;;;11.27;;
32427;SDS011;18882;50.952;4.366;2022-08-16T01:38:33;17.00;;;11.45;;
32427;SDS011;18882;50.952;4.366;2022-08-16T01:41:11;20.17;;;11.18;;
32427;SDS011;18882;50.952;4.366;2022-08-16T01:43:40;19.00;;;11.60;;
32427;SDS011;18882;50.952;4.366;2022-08-16T01:46:18;14.55;;;10.18;;
32427;SDS011;18882;50.952;4.366;2022-08-16T01:48:53;16.92;;;11.57;;
32427;SDS011;18882;50.952;4.366;2022-08-16T01:53:51;16.60;;;10.75;;
32427;SDS011;18882;50.952;4.366;2022-08-16T01:56:17;14.07;;;10.60;;
32427;SDS011;18882;50.952;4.366;2022-08-16T01:58:43;16.13;;;10.32;;
32427;SDS011;18882;50.952;4.366;2022-08-16T02:01:09;16.63;;;11.15;;
32427;SDS011;18882;50.952;4.366;2022-08-16T02:03:34;15.18;;;10.80;;
32427;SDS011;18882;50.952;4.366;2022-08-16T02:06:00;15.80;;;11.10;;
32427;SDS011;18882;50.952;4.366;2022-08-16T02:08:26;14.02;;;10.85;;
32427;SDS011;18882;50.952;4.366;2022-08-16T02:10:51;16.38;;;10.82;;
32427;SDS011;18882;50.952;4.366;2022-08-16T02:13:18;14.35;;;10.38;;
32427;SDS011;18882;50.952;4.366;2022-08-16T02:15:44;16.63;;;9.30;;
32427;SDS011;18882;50.952;4.366;2022-08-16T02:18:10;15.50;;;10.15;;
32427;SDS011;18882;50.952;4.366;2022-08-16T02:20:37;14.23;;;10.10;;
32427;SDS011;18882;50.952;4.366;2022-08-16T02:23:04;13.25;;;9.43;;
32427;SDS011;18882;50.952;4.366;2022-08-16T02:25:31;19.20;;;10.70;;
32427;SDS011;18882;50.952;4.366;2022-08-16T02:27:57;15.02;;;9.27;;
32427;SDS011;18882;50.952;4.366;2022-08-16T02:30:24;14.52;;;9.23;;
32427;SDS011;18882;50.952;4.366;2022-08-16T02:32:52;14.07;;;9.80;;
32427;SDS011;18882;50.952;4.366;2022-08-16T02:35:19;18.58;;;10.02;;
32427;SDS011;18882;50.952;4.366;2022-08-16T02:37:45;15.43;;;9.70;;
32427;SDS011;18882;50.952;4.366;2022-08-16T02:40:11;11.00;;;9.40;;
32427;SDS011;18882;50.952;4.366;2022-08-16T02:42:41;19.15;;;9.60;;
32427;SDS011;18882;50.952;4.366;2022-08-16T02:45:08;16.80;;;9.88;;
32427;SDS011;18882;50.952;4.366;2022-08-16T02:47:34;15.90;;;9.13;;
32427;SDS011;18882;50.952;4.366;2022-08-16T02:50:00;15.65;;;9.15;;
32427;SDS011;18882;50.952;4.366;2022-08-16T02:52:25;15.00;;;9.20;;
32427;SDS011;18882;50.952;4.366;2022-08-16T02:54:51;13.10;;;8.63;;
32427;SDS011;18882;50.952;4.366;2022-08-16T02:57:17;13.60;;;9.95;;
32427;SDS011;18882;50.952;4.366;2022-08-16T02:59:43;16.17;;;9.52;;
32427;SDS011;18882;50.952;4.366;2022-08-16T03:02:09;17.67;;;9.93;;
32427;SDS011;18882;50.952;4.366;2022-08-16T03:04:36;14.20;;;9.80;;
32427;SDS011;18882;50.952;4.366;2022-08-16T03:07:02;17.48;;;10.70;;
32427;SDS011;18882;50.952;4.366;2022-08-16T03:09:29;14.90;;;10.57;;
32427;SDS011;18882;50.952;4.366;2022-08-16T03:11:55;14.23;;;9.93;;
32427;SDS011;18882;50.952;4.366;2022-08-16T03:14:21;16.55;;;10.75;;
32427;SDS011;18882;50.952;4.366;2022-08-16T03:16:47;17.25;;;10.68;;
32427;SDS011;18882;50.952;4.366;2022-08-16T03:19:13;18.55;;;11.48;;
32427;SDS011;18882;50.952;4.366;2022-08-16T03:21:39;20.75;;;11.07;;
32427;SDS011;18882;50.952;4.366;2022-08-16T03:24:05;17.27;;;11.60;;
32427;SDS011;18882;50.952;4.366;2022-08-16T03:26:31;16.08;;;11.43;;
32427;SDS011;18882;50.952;4.366;2022-08-16T03:28:57;16.98;;;10.80;;
32427;SDS011;18882;50.952;4.366;2022-08-16T03:31:23;16.95;;;11.27;;
32427;SDS011;18882;50.952;4.366;2022-08-16T03:33:49;16.90;;;11.35;;
32427;SDS011;18882;50.952;4.366;2022-08-16T03:36:15;17.63;;;11.07;;
32427;SDS011;18882;50.952;4.366;2022-08-16T03:38:40;13.68;;;10.98;;
32427;SDS011;18882;50.952;4.366;2022-08-16T03:41:07;17.67;;;10.82;;
32427;SDS011;18882;50.952;4.366;2022-08-16T03:43:33;17.92;;;11.38;;
32427;SDS011;18882;50.952;4.366;2022-08-16T03:45:59;20.13;;;12.15;;
32427;SDS011;18882;50.952;4.366;2022-08-16T03:48:28;20.90;;;11.95;;
32427;SDS011;18882;50.952;4.366;2022-08-16T03:50:57;14.13;;;10.68;;
32427;SDS011;18882;50.952;4.366;2022-08-16T03:53:23;16.83;;;10.20;;
32427;SDS011;18882;50.952;4.366;2022-08-16T03:55:49;16.95;;;11.52;;
32427;SDS011;18882;50.952;4.366;2022-08-16T03:58:15;14.93;;;11.00;;
32427;SDS011;18882;50.952;4.366;2022-08-16T04:00:42;16.42;;;11.63;;
32427;SDS011;18882;50.952;4.366;2022-08-16T04:03:08;22.85;;;11.70;;
32427;SDS011;18882;50.952;4.366;2022-08-16T04:05:38;17.83;;;10.77;;
32427;SDS011;18882;50.952;4.366;2022-08-16T04:08:07;18.80;;;11.25;;
32427;SDS011;18882;50.952;4.366;2022-08-16T04:10:33;19.48;;;10.57;;
32427;SDS011;18882;50.952;4.366;2022-08-16T04:12:59;17.27;;;11.18;;
32427;SDS011;18882;50.952;4.366;2022-08-16T04:15:25;22.20;;;13.02;;
32427;SDS011;18882;50.952;4.366;2022-08-16T04:17:53;17.65;;;12.38;;
32427;SDS011;18882;50.952;4.366;2022-08-16T04:20:19;14.20;;;11.13;;
32427;SDS011;18882;50.952;4.366;2022-08-16T04:22:45;16.88;;;12.20;;
32427;SDS011;18882;50.952;4.366;2022-08-16T04:25:11;21.40;;;12.55;;
32427;SDS011;18882;50.952;4.366;2022-08-16T04:27:38;16.95;;;11.77;;
32427;SDS011;18882;50.952;4.366;2022-08-16T04:30:06;15.93;;;12.07;;
32427;SDS011;18882;50.952;4.366;2022-08-16T04:32:35;23.95;;;12.82;;
32427;SDS011;18882;50.952;4.366;2022-08-16T04:35:01;22.10;;;13.57;;
32427;SDS011;18882;50.952;4.366;2022-08-16T04:37:30;23.08;;;12.25;;
32427;SDS011;18882;50.952;4.366;2022-08-16T04:39:56;25.27;;;13.57;;
32427;SDS011;18882;50.952;4.366;2022-08-16T04:42:21;23.55;;;14.07;;
32427;SDS011;18882;50.952;4.366;2022-08-16T04:44:47;20.33;;;13.05;;
32427;SDS011;18882;50.952;4.366;2022-08-16T04:47:13;24.77;;;13.23;;
32427;SDS011;18882;50.952;4.366;2022-08-16T04:49:39;17.70;;;12.63;;
32427;SDS011;18882;50.952;4.366;2022-08-16T04:52:04;20.70;;;12.80;;
32427;SDS011;18882;50.952;4.366;2022-08-16T04:54:30;19.60;;;13.60;;
32427;SDS011;18882;50.952;4.366;2022-08-16T04:56:56;18.20;;;11.80;;
32427;SDS011;18882;50.952;4.366;2022-08-16T04:59:22;18.42;;;12.75;;
32427;SDS011;18882;50.952;4.366;2022-08-16T05:01:47;20.27;;;12.63;;
32427;SDS011;18882;50.952;4.366;2022-08-16T05:04:13;21.40;;;12.43;;
32427;SDS011;18882;50.952;4.366;2022-08-16T05:06:39;21.98;;;13.13;;
32427;SDS011;18882;50.952;4.366;2022-08-16T05:09:05;23.50;;;13.40;;
32427;SDS011;18882;50.952;4.366;2022-08-16T05:11:31;17.25;;;11.93;;
32427;SDS011;18882;50.952;4.366;2022-08-16T05:13:57;21.35;;;12.40;;
32427;SDS011;18882;50.952;4.366;2022-08-16T05:16:27;19.17;;;12.10;;
32427;SDS011;18882;50.952;4.366;2022-08-16T05:18:54;19.48;;;11.93;;
32427;SDS011;18882;50.952;4.366;2022-08-16T05:21:21;17.98;;;12.05;;
32427;SDS011;18882;50.952;4.366;2022-08-16T05:23:49;18.75;;;11.85;;
32427;SDS011;18882;50.952;4.366;2022-08-16T05:26:16;18.08;;;12.10;;
32427;SDS011;18882;50.952;4.366;2022-08-16T05:28:42;20.33;;;12.07;;
32427;SDS011;18882;50.952;4.366;2022-08-16T05:31:08;14.85;;;11.45;;
32427;SDS011;18882;50.952;4.366;2022-08-16T05:33:37;16.70;;;11.52;;
32427;SDS011;18882;50.952;4.366;2022-08-16T05:36:03;17.88;;;11.65;;
32427;SDS011;18882;50.952;4.366;2022-08-16T05:38:29;19.58;;;10.95;;
32427;SDS011;18882;50.952;4.366;2022-08-16T05:40:58;15.43;;;10.82;;
32427;SDS011;18882;50.952;4.366;2022-08-16T05:43:24;18.35;;;11.38;;
32427;SDS011;18882;50.952;4.366;2022-08-16T05:45:50;15.70;;;10.43;;
32427;SDS011;18882;50.952;4.366;2022-08-16T05:48:17;14.07;;;10.05;;
32427;SDS011;18882;50.952;4.366;2022-08-16T05:50:42;19.10;;;10.98;;
32427;SDS011;18882;50.952;4.366;2022-08-16T05:53:08;16.40;;;11.00;;
32427;SDS011;18882;50.952;4.366;2022-08-16T05:55:34;16.77;;;10.35;;
32427;SDS011;18882;50.952;4.366;2022-08-16T05:58:00;16.63;;;10.55;;
32427;SDS011;18882;50.952;4.366;2022-08-16T06:00:25;13.98;;;10.20;;
32427;SDS011;18882;50.952;4.366;2022-08-16T06:02:51;16.65;;;10.43;;
32427;SDS011;18882;50.952;4.366;2022-08-16T06:05:17;18.15;;;11.10;;
32427;SDS011;18882;50.952;4.366;2022-08-16T06:07:43;22.55;;;11.60;;
32427;SDS011;18882;50.952;4.366;2022-08-16T06:10:09;17.30;;;10.00;;
32427;SDS011;18882;50.952;4.366;2022-08-16T06:12:36;14.50;;;9.32;;
32427;SDS011;18882;50.952;4.366;2022-08-16T06:15:03;16.63;;;10.80;;
32427;SDS011;18882;50.952;4.366;2022-08-16T06:17:32;17.77;;;11.15;;
32427;SDS011;18882;50.952;4.366;2022-08-16T06:19:57;16.38;;;10.85;;
32427;SDS011;18882;50.952;4.366;2022-08-16T06:22:23;15.63;;;9.75;;
32427;SDS011;18882;50.952;4.366;2022-08-16T06:24:49;22.13;;;9.98;;
32427;SDS011;18882;50.952;4.366;2022-08-16T06:27:15;15.18;;;10.20;;
32427;SDS011;18882;50.952;4.366;2022-08-16T06:29:41;23.27;;;10.30;;
32427;SDS011;18882;50.952;4.366;2022-08-16T06:32:08;17.33;;;10.73;;
32427;SDS011;18882;50.952;4.366;2022-08-16T06:34:35;16.95;;;9.48;;
32427;SDS011;18882;50.952;4.366;2022-08-16T06:37:02;13.77;;;9.63;;
32427;SDS011;18882;50.952;4.366;2022-08-16T06:39:29;18.50;;;8.57;;
32427;SDS011;18882;50.952;4.366;2022-08-16T06:41:55;17.27;;;9.32;;
32427;SDS011;18882;50.952;4.366;2022-08-16T06:44:21;16.13;;;8.85;;
32427;SDS011;18882;50.952;4.366;2022-08-16T06:46:47;13.13;;;8.90;;
32427;SDS011;18882;50.952;4.366;2022-08-16T06:49:13;12.32;;;8.40;;
32427;SDS011;18882;50.952;4.366;2022-08-16T06:51:39;11.25;;;8.07;;
32427;SDS011;18882;50.952;4.366;2022-08-16T06:54:06;10.15;;;7.68;;
32427;SDS011;18882;50.952;4.366;2022-08-16T06:56:33;15.13;;;7.82;;
32427;SDS011;18882;50.952;4.366;2022-08-16T06:58:59;13.00;;;7.70;;
32427;SDS011;18882;50.952;4.366;2022-08-16T07:01:25;10.07;;;7.43;;
32427;SDS011;18882;50.952;4.366;2022-08-16T07:03:52;12.45;;;8.30;;
32427;SDS011;18882;50.952;4.366;2022-08-16T07:06:18;12.25;;;7.35;;
32427;SDS011;18882;50.952;4.366;2022-08-16T07:08:45;11.05;;;7.82;;
32427;SDS011;18882;50.952;4.366;2022-08-16T07:11:12;17.25;;;8.20;;
32427;SDS011;18882;50.952;4.366;2022-08-16T07:13:38;14.07;;;7.60;;
32427;SDS011;18882;50.952;4.366;2022-08-16T07:16:05;8.63;;;6.50;;
32427;SDS011;18882;50.952;4.366;2022-08-16T07:18:32;12.88;;;7.45;;
32427;SDS011;18882;50.952;4.366;2022-08-16T07:20:59;10.20;;;8.00;;
32427;SDS011;18882;50.952;4.366;2022-08-16T07:23:24;13.05;;;7.25;;
32427;SDS011;18882;50.952;4.366;2022-08-16T07:25:51;13.63;;;7.93;;
32427;SDS011;18882;50.952;4.366;2022-08-16T07:28:17;12.65;;;7.63;;
32427;SDS011;18882;50.952;4.366;2022-08-16T07:30:45;11.73;;;7.55;;
32427;SDS011;18882;50.952;4.366;2022-08-16T07:33:11;12.02;;;8.10;;
32427;SDS011;18882;50.952;4.366;2022-08-16T07:35:38;9.30;;;7.03;;
32427;SDS011;18882;50.952;4.366;2022-08-16T07:38:05;10.25;;;6.88;;
32427;SDS011;18882;50.952;4.366;2022-08-16T07:40:32;10.05;;;6.10;;
32427;SDS011;18882;50.952;4.366;2022-08-16T07:42:59;8.35;;;5.97;;
32427;SDS011;18882;50.952;4.366;2022-08-16T07:45:25;7.60;;;6.63;;
32427;SDS011;18882;50.952;4.366;2022-08-16T07:47:51;8.82;;;6.32;;
32427;SDS011;18882;50.952;4.366;2022-08-16T07:50:17;6.38;;;5.75;;
32427;SDS011;18882;50.952;4.366;2022-08-16T07:52:43;10.45;;;6.28;;
32427;SDS011;18882;50.952;4.366;2022-08-16T07:55:10;10.88;;;6.47;;
32427;SDS011;18882;50.952;4.366;2022-08-16T07:57:38;8.13;;;5.75;;
32427;SDS011;18882;50.952;4.366;2022-08-16T08:00:05;7.20;;;6.15;;
32427;SDS011;18882;50.952;4.366;2022-08-16T08:02:32;7.05;;;5.63;;
32427;SDS011;18882;50.952;4.366;2022-08-16T08:04:58;7.68;;;5.65;;
32427;SDS011;18882;50.952;4.366;2022-08-16T08:07:24;9.65;;;6.47;;
32427;SDS011;18882;50.952;4.366;2022-08-16T08:09:49;7.38;;;5.60;;
32427;SDS011;18882;50.952;4.366;2022-08-16T08:12:16;7.80;;;6.03;;
32427;SDS011;18882;50.952;4.366;2022-08-16T08:14:43;9.20;;;5.35;;
32427;SDS011;18882;50.952;4.366;2022-08-16T08:17:10;11.23;;;5.03;;
32427;SDS011;18882;50.952;4.366;2022-08-16T08:19:35;6.05;;;4.97;;
32427;SDS011;18882;50.952;4.366;2022-08-16T08:22:02;6.43;;;5.00;;
32427;SDS011;18882;50.952;4.366;2022-08-16T08:24:28;5.45;;;4.95;;
32427;SDS011;18882;50.952;4.366;2022-08-16T08:27:00;9.68;;;4.68;;
32427;SDS011;18882;50.952;4.366;2022-08-16T08:29:26;5.38;;;4.88;;
32427;SDS011;18882;50.952;4.366;2022-08-16T08:31:52;12.20;;;5.07;;
32427;SDS011;18882;50.952;4.366;2022-08-16T08:34:18;6.60;;;4.15;;
32427;SDS011;18882;50.952;4.366;2022-08-16T08:36:45;6.57;;;4.65;;
32427;SDS011;18882;50.952;4.366;2022-08-16T08:39:12;7.63;;;3.88;;
32427;SDS011;18882;50.952;4.366;2022-08-16T08:41:40;7.20;;;4.10;;
32427;SDS011;18882;50.952;4.366;2022-08-16T08:44:06;15.75;;;5.10;;
32427;SDS011;18882;50.952;4.366;2022-08-16T08:46:32;11.35;;;4.80;;
32427;SDS011;18882;50.952;4.366;2022-08-16T08:48:57;7.60;;;4.55;;
32427;SDS011;18882;50.952;4.366;2022-08-16T08:51:23;5.35;;;4.57;;
32427;SDS011;18882;50.952;4.366;2022-08-16T08:53:49;4.80;;;4.30;;
32427;SDS011;18882;50.952;4.366;2022-08-16T08:56:15;6.43;;;4.47;;
32427;SDS011;18882;50.952;4.366;2022-08-16T08:58:41;5.80;;;4.10;;
32427;SDS011;18882;50.952;4.366;2022-08-16T09:01:07;4.15;;;3.63;;
32427;SDS011;18882;50.952;4.366;2022-08-16T09:03:34;5.40;;;3.88;;
32427;SDS011;18882;50.952;4.366;2022-08-16T09:06:02;4.32;;;3.88;;
32427;SDS011;18882;50.952;4.366;2022-08-16T09:08:29;5.30;;;4.10;;
32427;SDS011;18882;50.952;4.366;2022-08-16T09:10:56;4.45;;;4.05;;
32427;SDS011;18882;50.952;4.366;2022-08-16T09:13:24;5.53;;;4.35;;
32427;SDS011;18882;50.952;4.366;2022-08-16T09:15:51;5.78;;;4.38;;
32427;SDS011;18882;50.952;4.366;2022-08-16T09:18:18;5.53;;;3.83;;
32427;SDS011;18882;50.952;4.366;2022-08-16T09:20:44;4.40;;;4.00;;
32427;SDS011;18882;50.952;4.366;2022-08-16T09:23:11;8.43;;;3.75;;
32427;SDS011;18882;50.952;4.366;2022-08-16T09:25:37;5.25;;;4.10;;
32427;SDS011;18882;50.952;4.366;2022-08-16T09:28:03;6.28;;;4.25;;
32427;SDS011;18882;50.952;4.366;2022-08-16T09:30:30;8.13;;;4.03;;
32427;SDS011;18882;50.952;4.366;2022-08-16T09:32:58;7.80;;;4.45;;
32427;SDS011;18882;50.952;4.366;2022-08-16T09:35:23;4.60;;;4.13;;
32427;SDS011;18882;50.952;4.366;2022-08-16T09:37:50;5.78;;;4.40;;
32427;SDS011;18882;50.952;4.366;2022-08-16T09:40:16;5.57;;;4.38;;
32427;SDS011;18882;50.952;4.366;2022-08-16T09:42:43;3.97;;;3.65;;
32427;SDS011;18882;50.952;4.366;2022-08-16T09:45:08;6.72;;;3.92;;
32427;SDS011;18882;50.952;4.366;2022-08-16T09:47:36;7.15;;;3.30;;
32427;SDS011;18882;50.952;4.366;2022-08-16T09:50:12;7.18;;;3.58;;
32427;SDS011;18882;50.952;4.366;2022-08-16T09:52:38;4.95;;;3.92;;
32427;SDS011;18882;50.952;4.366;2022-08-16T09:55:05;5.05;;;4.15;;
32427;SDS011;18882;50.952;4.366;2022-08-16T09:57:36;4.47;;;4.07;;
32427;SDS011;18882;50.952;4.366;2022-08-16T10:00:04;3.83;;;3.53;;
32427;SDS011;18882;50.952;4.366;2022-08-16T10:02:32;4.82;;;3.45;;
32427;SDS011;18882;50.952;4.366;2022-08-16T10:04:57;9.57;;;3.90;;
32427;SDS011;18882;50.952;4.366;2022-08-16T10:07:24;5.40;;;4.00;;
32427;SDS011;18882;50.952;4.366;2022-08-16T10:09:51;4.72;;;3.83;;
32427;SDS011;18882;50.952;4.366;2022-08-16T10:12:17;4.05;;;3.65;;
32427;SDS011;18882;50.952;4.366;2022-08-16T10:15:02;4.35;;;3.63;;
32427;SDS011;18882;50.952;4.366;2022-08-16T10:17:28;10.02;;;3.90;;
32427;SDS011;18882;50.952;4.366;2022-08-16T10:19:54;4.15;;;3.67;;
32427;SDS011;18882;50.952;4.366;2022-08-16T10:22:20;4.15;;;3.75;;
32427;SDS011;18882;50.952;4.366;2022-08-16T10:24:46;6.75;;;3.78;;
32427;SDS011;18882;50.952;4.366;2022-08-16T10:27:12;4.45;;;3.28;;
32427;SDS011;18882;50.952;4.366;2022-08-16T10:29:38;9.25;;;4.25;;
32427;SDS011;18882;50.952;4.366;2022-08-16T10:32:04;5.13;;;4.00;;
32427;SDS011;18882;50.952;4.366;2022-08-16T10:34:31;3.20;;;3.00;;
32427;SDS011;18882;50.952;4.366;2022-08-16T10:36:56;4.75;;;3.45;;
32427;SDS011;18882;50.952;4.366;2022-08-16T10:39:22;4.28;;;3.33;;
32427;SDS011;18882;50.952;4.366;2022-08-16T10:41:48;5.22;;;3.90;;
32427;SDS011;18882;50.952;4.366;2022-08-16T10:44:14;6.88;;;3.92;;
32427;SDS011;18882;50.952;4.366;2022-08-16T10:46:41;4.55;;;3.53;;
32427;SDS011;18882;50.952;4.366;2022-08-16T10:49:07;4.68;;;3.90;;
32427;SDS011;18882;50.952;4.366;2022-08-16T10:51:35;6.00;;;3.70;;
32427;SDS011;18882;50.952;4.366;2022-08-16T10:54:02;4.50;;;3.58;;
32427;SDS011;18882;50.952;4.366;2022-08-16T10:56:28;4.50;;;3.38;;
32427;SDS011;18882;50.952;4.366;2022-08-16T10:58:54;12.60;;;4.07;;
32427;SDS011;18882;50.952;4.366;2022-08-16T11:01:22;4.38;;;3.97;;
32427;SDS011;18882;50.952;4.366;2022-08-16T11:03:50;5.43;;;3.47;;
32427;SDS011;18882;50.952;4.366;2022-08-16T11:06:16;6.82;;;4.18;;
32427;SDS011;18882;50.952;4.366;2022-08-16T11:08:42;3.78;;;3.42;;
32427;SDS011;18882;50.952;4.366;2022-08-16T11:11:08;7.35;;;3.72;;
32427;SDS011;18882;50.952;4.366;2022-08-16T11:13:35;4.82;;;3.50;;
32427;SDS011;18882;50.952;4.366;2022-08-16T11:16:01;3.80;;;3.40;;
32427;SDS011;18882;50.952;4.366;2022-08-16T11:18:27;8.18;;;3.78;;
32427;SDS011;18882;50.952;4.366;2022-08-16T11:20:53;6.55;;;4.03;;
32427;SDS011;18882;50.952;4.366;2022-08-16T11:23:20;6.97;;;3.85;;
32427;SDS011;18882;50.952;4.366;2022-08-16T11:25:47;4.35;;;4.00;;
32427;SDS011;18882;50.952;4.366;2022-08-16T11:28:13;7.72;;;3.90;;
32427;SDS011;18882;50.952;4.366;2022-08-16T11:30:39;5.05;;;4.25;;
32427;SDS011;18882;50.952;4.366;2022-08-16T11:33:08;5.47;;;4.18;;
32427;SDS011;18882;50.952;4.366;2022-08-16T11:35:34;6.20;;;3.83;;
32427;SDS011;18882;50.952;4.366;2022-08-16T11:38:02;4.75;;;4.35;;
32427;SDS011;18882;50.952;4.366;2022-08-16T11:40:32;6.25;;;4.75;;
32427;SDS011;18882;50.952;4.366;2022-08-16T11:43:03;7.05;;;4.28;;
32427;SDS011;18882;50.952;4.366;2022-08-16T11:45:30;8.27;;;3.90;;
32427;SDS011;18882;50.952;4.366;2022-08-16T11:47:57;5.90;;;4.32;;
32427;SDS011;18882;50.952;4.366;2022-08-16T11:50:24;7.28;;;4.50;;
32427;SDS011;18882;50.952;4.366;2022-08-16T11:52:50;4.15;;;3.67;;
32427;SDS011;18882;50.952;4.366;2022-08-16T11:55:17;5.95;;;4.28;;
32427;SDS011;18882;50.952;4.366;2022-08-16T11:57:43;10.90;;;4.57;;
32427;SDS011;18882;50.952;4.366;2022-08-16T12:00:11;8.02;;;4.88;;
32427;SDS011;18882;50.952;4.366;2022-08-16T12:02:39;6.03;;;4.90;;
32427;SDS011;18882;50.952;4.366;2022-08-16T12:05:06;5.65;;;3.97;;
32427;SDS011;18882;50.952;4.366;2022-08-16T12:07:33;9.85;;;4.05;;
32427;SDS011;18882;50.952;4.366;2022-08-16T12:09:59;4.90;;;3.55;;
32427;SDS011;18882;50.952;4.366;2022-08-16T12:12:26;7.18;;;4.63;;
32427;SDS011;18882;50.952;4.366;2022-08-16T12:14:52;5.43;;;4.07;;
32427;SDS011;18882;50.952;4.366;2022-08-16T12:17:18;4.85;;;4.18;;
32427;SDS011;18882;50.952;4.366;2022-08-16T12:19:44;4.65;;;4.25;;
32427;SDS011;18882;50.952;4.366;2022-08-16T12:22:10;8.05;;;4.15;;
32427;SDS011;18882;50.952;4.366;2022-08-16T12:24:36;4.97;;;3.60;;
32427;SDS011;18882;50.952;4.366;2022-08-16T12:27:02;4.93;;;3.90;;
32427;SDS011;18882;50.952;4.366;2022-08-16T12:29:29;4.15;;;3.38;;
32427;SDS011;18882;50.952;4.366;2022-08-16T12:31:54;5.95;;;3.63;;
32427;SDS011;18882;50.952;4.366;2022-08-16T12:34:21;6.20;;;3.80;;
32427;SDS011;18882;50.952;4.366;2022-08-16T12:36:46;4.15;;;3.70;;
32427;SDS011;18882;50.952;4.366;2022-08-16T12:39:12;6.47;;;3.90;;
32427;SDS011;18882;50.952;4.366;2022-08-16T12:41:39;7.90;;;3.80;;
32427;SDS011;18882;50.952;4.366;2022-08-16T12:44:08;6.80;;;3.30;;
32427;SDS011;18882;50.952;4.366;2022-08-16T12:46:35;6.60;;;3.75;;
32427;SDS011;18882;50.952;4.366;2022-08-16T12:49:01;4.80;;;4.00;;
32427;SDS011;18882;50.952;4.366;2022-08-16T12:54:04;4.30;;;3.70;;
32427;SDS011;18882;50.952;4.366;2022-08-16T12:56:34;4.70;;;3.83;;
32427;SDS011;18882;50.952;4.366;2022-08-16T12:59:04;11.60;;;3.55;;
32427;SDS011;18882;50.952;4.366;2022-08-16T13:01:36;4.90;;;3.65;;
32427;SDS011;18882;50.952;4.366;2022-08-16T13:04:04;3.55;;;3.25;;
32427;SDS011;18882;50.952;4.366;2022-08-16T13:06:31;3.53;;;3.20;;
32427;SDS011;18882;50.952;4.366;2022-08-16T13:08:57;3.40;;;3.17;;
32427;SDS011;18882;50.952;4.366;2022-08-16T13:11:39;6.05;;;3.05;;
32427;SDS011;18882;50.952;4.366;2022-08-16T13:14:09;4.10;;;3.20;;
32427;SDS011;18882;50.952;4.366;2022-08-16T13:16:35;4.10;;;3.10;;
32427;SDS011;18882;50.952;4.366;2022-08-16T13:19:02;3.85;;;3.55;;
32427;SDS011;18882;50.952;4.366;2022-08-16T13:21:27;4.03;;;3.50;;
32427;SDS011;18882;50.952;4.366;2022-08-16T13:23:53;4.75;;;3.72;;
32427;SDS011;18882;50.952;4.366;2022-08-16T13:26:19;4.15;;;3.28;;
32427;SDS011;18882;50.952;4.366;2022-08-16T13:28:45;5.47;;;3.15;;
32427;SDS011;18882;50.952;4.366;2022-08-16T13:31:10;6.78;;;3.30;;
32427;SDS011;18882;50.952;4.366;2022-08-16T13:33:36;6.28;;;3.42;;
32427;SDS011;18882;50.952;4.366;2022-08-16T13:36:04;7.78;;;2.92;;
32427;SDS011;18882;50.952;4.366;2022-08-16T13:38:32;4.82;;;3.50;;
32427;SDS011;18882;50.952;4.366;2022-08-16T13:40:59;5.22;;;2.92;;
32427;SDS011;18882;50.952;4.366;2022-08-16T13:43:26;3.17;;;2.97;;
32427;SDS011;18882;50.952;4.366;2022-08-16T13:45:53;10.43;;;3.03;;
32427;SDS011;18882;50.952;4.366;2022-08-16T13:48:20;8.65;;;3.60;;
32427;SDS011;18882;50.952;4.366;2022-08-16T13:50:46;4.45;;;3.10;;
32427;SDS011;18882;50.952;4.366;2022-08-16T13:53:12;9.98;;;3.75;;
32427;SDS011;18882;50.952;4.366;2022-08-16T13:55:38;8.73;;;3.20;;
32427;SDS011;18882;50.952;4.366;2022-08-16T13:58:04;5.57;;;3.50;;
32427;SDS011;18882;50.952;4.366;2022-08-16T14:00:29;5.93;;;4.15;;
32427;SDS011;18882;50.952;4.366;2022-08-16T14:02:55;16.92;;;3.65;;
32427;SDS011;18882;50.952;4.366;2022-08-16T14:05:21;3.55;;;3.03;;
32427;SDS011;18882;50.952;4.366;2022-08-16T14:07:46;8.32;;;3.03;;
32427;SDS011;18882;50.952;4.366;2022-08-16T14:10:12;8.27;;;3.55;;
32427;SDS011;18882;50.952;4.366;2022-08-16T14:12:38;3.40;;;2.85;;
32427;SDS011;18882;50.952;4.366;2022-08-16T14:15:05;12.48;;;3.20;;
32427;SDS011;18882;50.952;4.366;2022-08-16T14:17:33;6.18;;;3.30;;
32427;SDS011;18882;50.952;4.366;2022-08-16T14:19:58;3.92;;;3.60;;
32427;SDS011;18882;50.952;4.366;2022-08-16T14:22:28;6.47;;;3.10;;
32427;SDS011;18882;50.952;4.366;2022-08-16T14:24:56;3.22;;;2.92;;
32427;SDS011;18882;50.952;4.366;2022-08-16T14:27:23;4.20;;;3.80;;
32427;SDS011;18882;50.952;4.366;2022-08-16T14:29:50;5.45;;;3.60;;
32427;SDS011;18882;50.952;4.366;2022-08-16T14:32:18;4.55;;;3.40;;
32427;SDS011;18882;50.952;4.366;2022-08-16T14:34:46;3.50;;;3.17;;
32427;SDS011;18882;50.952;4.366;2022-08-16T14:37:12;4.78;;;3.35;;
32427;SDS011;18882;50.952;4.366;2022-08-16T14:39:37;4.93;;;3.42;;